Time;durP1;ratioP1;P1;durP2;ratioP2;P2;SDS_P1;SDS_P2;PMS_P1;PMS_P2;Temp;Humidity;BMP_temperature;BMP_pressure;BME280_temperature;BME280_humidity;BME280_pressure;Samples;Min_cycle;Max_cycle;Signal;HPM_P1;HPM_P2
2024/02/10 00:00:31;;;;;;;182.13;15.18;;;;;;;2.44;100.00;98300.44;5078408;28;20422;-79
2024/02/10 00:03:04;;;;;;;103.88;13.90;;;;;;;2.37;100.00;98302.66;5093108;28;20428;-78
2024/02/10 00:05:33;;;;;;;208.10;15.43;;;;;;;2.27;100.00;98302.78;5080026;28;20419;-79
2024/02/10 00:08:06;;;;;;;83.43;13.73;;;;;;;2.41;100.00;98298.34;5079687;28;21075;-79
2024/02/10 00:10:42;;;;;;;208.07;15.00;;;;;;;2.45;100.00;98302.03;5078092;28;20445;-79
2024/02/10 00:13:15;;;;;;;122.63;14.77;;;;;;;2.57;100.00;98307.03;5079986;28;20437;-79
2024/02/10 00:15:49;;;;;;;218.73;15.45;;;;;;;2.41;100.00;98300.22;5081052;28;20431;-79
2024/02/10 00:18:24;;;;;;;108.00;14.07;;;;;;;2.36;100.00;98298.38;5076018;28;20430;-79
2024/02/10 00:20:57;;;;;;;120.82;14.40;;;;;;;2.38;100.00;98298.91;5081196;28;20941;-79
2024/02/10 00:23:30;;;;;;;156.00;14.50;;;;;;;2.42;100.00;98299.13;5082184;28;20425;-79
2024/02/10 00:26:05;;;;;;;65.47;12.55;;;;;;;2.33;100.00;98304.31;5080738;28;20919;-79
2024/02/10 00:28:38;;;;;;;68.18;13.07;;;;;;;2.27;100.00;98297.41;5085127;28;20425;-79
2024/02/10 00:31:07;;;;;;;241.68;15.90;;;;;;;2.26;100.00;98301.97;5080018;28;20410;-79
2024/02/10 00:33:45;;;;;;;144.10;14.23;;;;;;;2.24;100.00;98297.97;5079948;28;20433;-79
2024/02/10 00:36:13;;;;;;;77.75;14.05;;;;;;;2.20;100.00;98301.22;5082055;28;20811;-79
2024/02/10 00:38:42;;;;;;;283.65;16.17;;;;;;;2.24;100.00;98298.78;5083347;28;20413;-79
2024/02/10 00:41:19;;;;;;;201.30;15.77;;;;;;;2.37;100.00;98303.47;5082413;28;20422;-79
2024/02/10 00:43:52;;;;;;;349.63;17.25;;;;;;;2.33;100.00;98301.63;5079268;28;20421;-79
2024/02/10 00:46:25;;;;;;;295.25;17.33;;;;;;;2.47;100.00;98299.06;5094552;27;20436;-79
2024/02/10 00:48:54;;;;;;;260.20;15.82;;;;;;;2.36;100.00;98299.19;5084741;28;20416;-79
2024/02/10 00:51:30;;;;;;;311.15;16.50;;;;;;;2.35;100.00;98294.13;5081096;28;20418;-79
2024/02/10 00:54:04;;;;;;;293.60;17.20;;;;;;;2.25;100.00;98296.88;5086706;28;20429;-79
2024/02/10 00:56:34;;;;;;;261.75;17.40;;;;;;;2.41;100.00;98303.69;5081559;28;20870;-79
2024/02/10 00:59:09;;;;;;;215.33;16.70;;;;;;;2.34;100.00;98312.09;5086581;28;20427;-79
2024/02/10 01:01:42;;;;;;;383.35;17.55;;;;;;;2.32;100.00;98311.59;5082744;28;20423;-79
2024/02/10 01:04:15;;;;;;;243.38;17.77;;;;;;;2.33;100.00;98301.63;5081555;28;20432;-79
2024/02/10 01:06:49;;;;;;;404.02;18.33;;;;;;;2.34;100.00;98311.28;5083156;28;21201;-79
2024/02/10 01:09:17;;;;;;;344.83;18.35;;;;;;;2.34;100.00;98308.59;5079006;28;20885;-79
2024/02/10 01:11:47;;;;;;;87.15;15.75;;;;;;;2.35;100.00;98318.28;5089558;28;20420;-79
2024/02/10 01:14:15;;;;;;;137.88;16.13;;;;;;;2.48;100.00;98314.09;5099918;28;20421;-79
2024/02/10 01:16:48;;;;;;;189.10;17.02;;;;;;;2.37;100.00;98316.09;5079763;28;20422;-79
2024/02/10 01:19:22;;;;;;;100.07;16.37;;;;;;;2.34;100.00;98317.44;5079370;28;20425;-79
2024/02/10 01:21:55;;;;;;;143.80;17.65;;;;;;;2.34;100.00;98309.41;5079193;28;20953;-79
2024/02/10 01:24:27;;;;;;;134.02;17.77;;;;;;;2.38;100.00;98321.16;5090243;28;20424;-79
2024/02/10 01:27:03;;;;;;;143.95;18.20;;;;;;;2.37;100.00;98314.19;5078285;28;20430;-79
2024/02/10 01:29:38;;;;;;;158.50;18.33;;;;;;;2.38;100.00;98309.66;5076001;28;20438;-79
2024/02/10 01:32:11;;;;;;;140.85;18.23;;;;;;;2.43;100.00;98308.78;5078916;28;20422;-79
2024/02/10 01:34:45;;;;;;;156.32;18.27;;;;;;;2.41;100.00;98314.44;5079755;28;20420;-79
2024/02/10 01:37:18;;;;;;;78.93;18.37;;;;;;;2.44;100.00;98316.53;5084456;28;20529;-79
2024/02/10 01:39:53;;;;;;;83.90;18.13;;;;;;;2.44;100.00;98305.81;5080362;28;20889;-79
2024/02/10 01:42:37;;;;;;;81.18;17.88;;;;;;;2.46;100.00;98313.56;5085311;28;20426;-79
2024/02/10 01:45:13;;;;;;;69.43;17.92;;;;;;;2.65;100.00;98311.78;5079328;28;20417;-79
2024/02/10 01:47:47;;;;;;;68.35;17.52;;;;;;;2.65;100.00;98316.34;5090939;28;20434;-79
2024/02/10 01:50:15;;;;;;;61.63;17.88;;;;;;;2.57;100.00;98319.63;5078269;28;21174;-79
2024/02/10 01:52:49;;;;;;;61.30;17.25;;;;;;;2.52;100.00;98317.81;5078674;28;20424;-79
2024/02/10 01:55:23;;;;;;;69.97;17.33;;;;;;;2.61;100.00;98318.81;5078928;28;20429;-79
2024/02/10 01:58:07;;;;;;;78.13;18.98;;;;;;;2.61;100.00;98318.81;5076068;28;20419;-79
2024/02/10 02:00:41;;;;;;;70.93;17.83;;;;;;;2.85;100.00;98318.78;5078963;28;20907;-79
2024/02/10 02:03:09;;;;;;;66.38;17.80;;;;;;;2.76;100.00;98317.81;5081689;28;20412;-79
2024/02/10 02:05:44;;;;;;;49.42;17.05;;;;;;;2.66;100.00;98315.25;5084315;28;20419;-79
2024/02/10 02:08:20;;;;;;;73.65;17.85;;;;;;;2.59;100.00;98323.66;5081868;28;20414;-79
2024/02/10 02:10:53;;;;;;;59.45;17.77;;;;;;;2.58;100.00;98332.78;5095677;28;20435;-79
2024/02/10 02:13:29;;;;;;;63.92;18.40;;;;;;;2.61;100.00;98320.66;5093373;28;20430;-79
2024/02/10 02:15:58;;;;;;;78.80;17.48;;;;;;;2.70;100.00;98318.97;5080671;28;20418;-79
2024/02/10 02:18:27;;;;;;;77.78;18.33;;;;;;;2.81;100.00;98317.75;5080666;28;20866;-79
2024/02/10 02:21:00;;;;;;;73.93;18.37;;;;;;;2.75;100.00;98316.22;5077670;28;20465;-78
2024/02/10 02:23:35;;;;;;;56.80;17.67;;;;;;;2.79;100.00;98303.84;5080880;28;20477;-79
2024/02/10 02:26:04;;;;;;;50.83;16.42;;;;;;;2.86;100.00;98304.28;5082595;28;20744;-79
2024/02/10 02:28:32;;;;;;;60.80;17.48;;;;;;;2.84;100.00;98297.59;5076275;28;20430;-79
2024/02/10 02:31:05;;;;;;;44.63;17.05;;;;;;;2.99;100.00;98305.44;5077838;28;20433;-79
2024/02/10 02:33:39;;;;;;;45.90;16.23;;;;;;;2.83;100.00;98304.84;5076750;28;20829;-79
2024/02/10 02:36:13;;;;;;;49.08;16.73;;;;;;;2.78;100.00;98315.66;5095996;27;20421;-79
2024/02/10 02:38:48;;;;;;;78.35;15.63;;;;;;;2.78;100.00;98318.34;5079639;28;20410;-79
2024/02/10 02:41:16;;;;;;;169.88;18.27;;;;;;;2.99;100.00;98316.19;5097274;27;20405;-79
2024/02/10 02:43:49;;;;;;;88.32;16.40;;;;;;;2.82;100.00;98307.84;5079348;28;20427;-79
2024/02/10 02:46:24;;;;;;;49.73;15.57;;;;;;;2.80;100.00;98312.69;5081264;28;20421;-79
2024/02/10 02:49:00;;;;;;;64.25;16.05;;;;;;;2.76;100.00;98308.97;5082687;28;20915;-79
2024/02/10 02:51:35;;;;;;;217.35;18.33;;;;;;;2.89;100.00;98311.75;5081999;28;20980;-79
2024/02/10 02:54:10;;;;;;;77.22;16.65;;;;;;;2.87;100.00;98322.00;5081511;28;20417;-79
2024/02/10 02:56:38;;;;;;;103.55;16.67;;;;;;;2.79;100.00;98327.19;5081290;28;20421;-79
2024/02/10 02:59:13;;;;;;;113.65;16.98;;;;;;;2.82;100.00;98321.25;5085114;28;20422;-79
2024/02/10 03:01:42;;;;;;;88.82;16.30;;;;;;;2.80;100.00;98320.75;5079373;28;20409;-79
2024/02/10 03:04:15;;;;;;;197.00;17.38;;;;;;;2.77;100.00;98326.69;5094193;28;20435;-79
2024/02/10 03:06:50;;;;;;;82.55;16.15;;;;;;;2.77;100.00;98326.69;5089122;28;20979;-79
2024/02/10 03:09:19;;;;;;;89.15;16.45;;;;;;;2.79;100.00;98316.44;5090819;28;20927;-79
2024/02/10 03:11:49;;;;;;;219.27;17.97;;;;;;;2.80;100.00;98313.47;5083289;28;20463;-80
2024/02/10 03:14:18;;;;;;;153.55;17.23;;;;;;;2.89;100.00;98317.13;5076052;28;20392;-79
2024/02/10 03:16:46;;;;;;;59.67;15.75;;;;;;;2.82;100.00;98318.59;5072428;28;20427;-79
2024/02/10 03:19:19;;;;;;;84.38;16.45;;;;;;;2.87;100.00;98313.13;5086402;28;20429;-79
2024/02/10 03:21:53;;;;;;;96.50;16.85;;;;;;;2.83;100.00;98310.22;5078005;28;20420;-80
2024/02/10 03:24:30;;;;;;;79.95;16.65;;;;;;;2.91;100.00;98305.31;5093790;28;20416;-79
2024/02/10 03:27:04;;;;;;;70.15;17.08;;;;;;;3.25;100.00;98297.06;5078024;28;20421;-79
2024/02/10 03:29:37;;;;;;;83.70;17.97;;;;;;;3.26;100.00;98298.66;5080175;28;20464;-79
2024/02/10 03:32:10;;;;;;;45.58;17.08;;;;;;;3.30;100.00;98299.69;5075775;28;20434;-79
2024/02/10 03:34:44;;;;;;;47.85;17.20;;;;;;;3.13;100.00;98300.16;5083938;28;20426;-79
2024/02/10 03:37:18;;;;;;;49.33;16.42;;;;;;;3.18;100.00;98299.31;5078344;28;20403;-79
2024/02/10 03:39:52;;;;;;;53.15;18.27;;;;;;;3.02;100.00;98306.78;5084917;28;20440;-79
2024/02/10 03:42:25;;;;;;;54.35;17.20;;;;;;;3.18;100.00;98300.09;5078002;28;20433;-79
2024/02/10 03:44:54;;;;;;;50.35;16.58;;;;;;;3.13;100.00;98302.06;5077324;28;20438;-80
2024/02/10 03:47:28;;;;;;;44.47;16.63;;;;;;;3.14;100.00;98301.78;5076210;28;20767;-79
2024/02/10 03:50:01;;;;;;;47.15;16.38;;;;;;;3.05;100.00;98304.31;5079129;28;20420;-79
2024/02/10 03:52:34;;;;;;;55.77;16.60;;;;;;;3.12;100.00;98312.03;5090360;28;20925;-79
2024/02/10 03:55:10;;;;;;;48.05;16.83;;;;;;;3.31;100.00;98297.78;5084830;28;20422;-79
2024/02/10 03:57:38;;;;;;;58.85;17.15;;;;;;;3.10;100.00;98306.13;5077836;28;21120;-79
2024/02/10 04:00:20;;;;;;;50.70;17.75;;;;;;;3.11;100.00;98302.34;5074226;28;20466;-79
2024/02/10 04:02:49;;;;;;;46.05;17.05;;;;;;;3.12;100.00;98306.66;5076392;28;20415;-79
2024/02/10 04:05:23;;;;;;;52.97;17.55;;;;;;;3.03;100.00;98317.22;5084243;28;20420;-79
2024/02/10 04:07:52;;;;;;;69.05;17.45;;;;;;;3.12;100.00;98305.84;5077465;28;20420;-79
2024/02/10 04:10:28;;;;;;;82.80;17.40;;;;;;;2.93;100.00;98298.56;5083737;28;20450;-79
2024/02/10 04:13:02;;;;;;;61.83;17.20;;;;;;;3.08;100.00;98308.31;5076955;28;20494;-79
2024/02/10 04:15:36;;;;;;;72.10;17.80;;;;;;;3.10;100.00;98308.81;5094368;28;20825;-79
2024/02/10 04:18:05;;;;;;;63.25;17.17;;;;;;;3.00;100.00;98309.75;5073335;28;20419;-79
2024/02/10 04:20:41;;;;;;;82.18;17.35;;;;;;;2.95;100.00;98317.06;5075345;28;20429;-79
2024/02/10 04:23:11;;;;;;;98.17;17.60;;;;;;;2.88;100.00;98314.72;5094769;28;20413;-79
2024/02/10 04:25:46;;;;;;;82.82;18.02;;;;;;;2.92;100.00;98313.06;5081870;28;20426;-79
2024/02/10 04:28:19;;;;;;;107.47;17.77;;;;;;;2.90;100.00;98309.88;5078171;28;20409;-79
2024/02/10 04:30:52;;;;;;;110.05;17.52;;;;;;;2.99;100.00;98312.72;5076927;28;20437;-79
2024/02/10 04:33:26;;;;;;;162.05;17.65;;;;;;;2.92;100.00;98312.28;5078149;28;20877;-79
2024/02/10 04:35:54;;;;;;;147.63;17.65;;;;;;;2.88;100.00;98317.41;5074501;28;20415;-79
2024/02/10 04:38:23;;;;;;;77.50;16.52;;;;;;;2.94;100.00;98318.16;5076541;28;20426;-79
2024/02/10 04:40:52;;;;;;;72.70;17.05;;;;;;;2.98;100.00;98319.97;5077386;28;20429;-80
2024/02/10 04:43:20;;;;;;;73.65;17.45;;;;;;;2.94;100.00;98318.16;5076079;28;21079;-79
2024/02/10 04:45:54;;;;;;;61.97;17.50;;;;;;;2.94;100.00;98324.34;5095454;28;20411;-79
2024/02/10 04:48:22;;;;;;;66.25;17.67;;;;;;;3.01;100.00;98315.91;5074053;28;20419;-79
2024/02/10 04:50:56;;;;;;;68.23;17.00;;;;;;;3.02;100.00;98322.88;5078282;28;20937;-79
2024/02/10 04:53:30;;;;;;;103.95;17.48;;;;;;;3.10;100.00;98311.50;5080809;28;20434;-79
2024/02/10 04:56:07;;;;;;;73.38;16.35;;;;;;;3.05;100.00;98319.63;5080926;28;20428;-79
2024/02/10 04:58:41;;;;;;;64.07;16.95;;;;;;;3.02;100.00;98320.19;5085812;28;20444;-79
2024/02/10 05:01:15;;;;;;;64.50;16.50;;;;;;;3.07;100.00;98312.09;5081058;28;20475;-79
2024/02/10 05:03:48;;;;;;;84.00;16.20;;;;;;;2.98;100.00;98319.19;5097037;28;20912;-79
2024/02/10 05:06:21;;;;;;;116.80;17.00;;;;;;;2.96;100.00;98314.09;5079335;28;20414;-79
2024/02/10 05:08:54;;;;;;;109.30;16.70;;;;;;;2.94;100.00;98316.28;5079532;28;20920;-79
2024/02/10 05:11:25;;;;;;;137.27;16.92;;;;;;;2.97;100.00;98312.19;5087410;28;20414;-79
2024/02/10 05:13:58;;;;;;;137.68;17.17;;;;;;;3.15;100.00;98322.19;5081963;28;20886;-79
2024/02/10 05:16:31;;;;;;;128.35;17.23;;;;;;;2.96;100.00;98324.84;5082907;28;20894;-80
2024/02/10 05:19:06;;;;;;;186.90;17.40;;;;;;;2.95;100.00;98317.88;5080974;28;20419;-79
2024/02/10 05:21:37;;;;;;;116.38;16.90;;;;;;;3.14;100.00;98320.59;5086341;28;20449;-79
2024/02/10 05:24:10;;;;;;;146.75;17.92;;;;;;;3.00;100.00;98320.50;5076211;28;20429;-79
2024/02/10 05:26:44;;;;;;;187.88;17.40;;;;;;;2.97;100.00;98314.88;5082573;28;20421;-79
2024/02/10 05:29:18;;;;;;;184.38;17.80;;;;;;;2.92;100.00;98317.66;5092126;28;20416;-80
2024/02/10 05:31:51;;;;;;;188.40;17.70;;;;;;;2.89;100.00;98319.81;5078097;28;20442;-80
2024/02/10 05:34:19;;;;;;;144.15;17.85;;;;;;;2.86;100.00;98320.41;5080349;28;20429;-79
2024/02/10 05:36:48;;;;;;;201.98;18.55;;;;;;;2.86;100.00;98323.06;5077333;28;20419;-79
2024/02/10 05:39:21;;;;;;;129.07;16.70;;;;;;;2.98;100.00;98322.66;5082959;28;20444;-82
2024/02/10 05:41:59;;;;;;;113.50;17.45;;;;;;;3.02;100.00;98318.31;5087942;28;20433;-82
2024/02/10 05:44:27;;;;;;;110.55;17.45;;;;;;;2.90;100.00;98317.94;5083379;28;20410;-81
2024/02/10 05:46:55;;;;;;;102.20;17.48;;;;;;;2.88;100.00;98328.16;5086808;28;20432;-81
2024/02/10 05:49:29;;;;;;;103.38;18.50;;;;;;;3.02;100.00;98326.38;5079161;28;20424;-78
2024/02/10 05:52:05;;;;;;;120.78;18.10;;;;;;;2.94;100.00;98331.59;5082489;28;20428;-78
2024/02/10 05:54:40;;;;;;;115.68;17.42;;;;;;;2.95;100.00;98338.56;5080728;28;20426;-78
2024/02/10 05:57:16;;;;;;;113.60;17.90;;;;;;;2.95;100.00;98341.25;5077050;28;21337;-78
2024/02/10 05:59:51;;;;;;;109.55;17.40;;;;;;;3.09;100.00;98338.66;5078976;28;20421;-78
2024/02/10 06:02:24;;;;;;;167.77;18.13;;;;;;;3.32;100.00;98334.34;5073935;28;20423;-78
2024/02/10 06:04:53;;;;;;;91.35;16.98;;;;;;;3.17;100.00;98341.50;5090234;28;20422;-78
2024/02/10 06:07:27;;;;;;;68.88;16.52;;;;;;;3.15;100.00;98341.00;5077091;28;20443;-78
2024/02/10 06:10:01;;;;;;;99.57;16.75;;;;;;;3.14;100.00;98346.66;5075625;28;20421;-77
2024/02/10 06:12:35;;;;;;;55.97;16.13;;;;;;;3.13;100.00;98353.91;5076707;28;20410;-78
2024/02/10 06:15:10;;;;;;;85.95;16.17;;;;;;;3.22;100.00;98346.03;5073875;28;20431;-78
2024/02/10 06:17:39;;;;;;;107.73;16.87;;;;;;;3.17;100.00;98352.25;5078401;28;20776;-78
2024/02/10 06:20:14;;;;;;;142.63;17.05;;;;;;;3.19;100.00;98342.03;5080847;28;20430;-79
2024/02/10 06:22:47;;;;;;;150.27;17.10;;;;;;;3.21;100.00;98353.28;5075648;28;20607;-78
2024/02/10 06:25:22;;;;;;;127.18;16.38;;;;;;;3.16;100.00;98353.38;5079467;28;20931;-78
2024/02/10 06:27:59;;;;;;;72.72;16.10;;;;;;;3.33;100.00;98354.75;5084853;28;20421;-82
2024/02/10 06:30:30;;;;;;;104.55;16.45;;;;;;;3.29;100.00;98351.06;5080730;28;20427;-82
2024/02/10 06:33:03;;;;;;;50.03;16.17;;;;;;;3.27;100.00;98353.22;5097263;28;20418;-82
2024/02/10 06:35:37;;;;;;;80.68;17.83;;;;;;;3.14;100.00;98368.16;5082802;28;20423;-84
2024/02/10 06:38:10;;;;;;;59.13;16.05;;;;;;;3.28;100.00;98368.28;5077528;28;20414;-78
2024/02/10 06:40:43;;;;;;;85.90;16.83;;;;;;;3.21;100.00;98368.63;5073399;28;20915;-78
2024/02/10 06:43:13;;;;;;;138.13;17.17;;;;;;;3.15;100.00;98378.63;5094084;28;20426;-78
2024/02/10 06:45:46;;;;;;;152.63;16.83;;;;;;;3.13;100.00;98380.78;5077941;28;20433;-78
2024/02/10 06:48:20;;;;;;;123.35;16.95;;;;;;;3.14;100.00;98385.09;5079905;28;20422;-78
2024/02/10 06:50:49;;;;;;;125.20;16.95;;;;;;;3.22;100.00;98378.28;5080634;28;20427;-78
2024/02/10 06:53:23;;;;;;;57.53;16.38;;;;;;;3.42;100.00;98385.28;5081539;28;20427;-78
2024/02/10 06:55:51;;;;;;;41.90;15.50;;;;;;;3.33;100.00;98381.63;5079982;28;20433;-78
2024/02/10 06:58:25;;;;;;;52.50;16.90;;;;;;;3.24;100.00;98386.84;5090807;28;20428;-78
2024/02/10 07:01:00;;;;;;;57.17;16.30;;;;;;;3.24;100.00;98394.91;5077021;28;20418;-78
2024/02/10 07:03:35;;;;;;;48.30;16.73;;;;;;;3.19;100.00;98390.41;5075909;28;20422;-79
2024/02/10 07:06:09;;;;;;;56.42;17.02;;;;;;;3.35;100.00;98393.69;5071174;28;20426;-78
2024/02/10 07:08:42;;;;;;;44.47;16.25;;;;;;;3.43;100.00;98391.47;5077362;28;20421;-78
2024/02/10 07:11:16;;;;;;;45.70;15.90;;;;;;;3.31;100.00;98391.88;5077240;28;20423;-78
2024/02/10 07:13:50;;;;;;;48.72;16.33;;;;;;;3.29;100.00;98392.16;5077277;28;20428;-77
2024/02/10 07:16:23;;;;;;;57.78;15.82;;;;;;;3.22;100.00;98392.50;5082849;28;20429;-78
2024/02/10 07:18:57;;;;;;;43.25;16.08;;;;;;;3.30;100.00;98387.59;5073231;28;20421;-78
2024/02/10 07:21:25;;;;;;;41.35;15.85;;;;;;;3.28;100.00;98393.25;5077249;28;20425;-78
2024/02/10 07:24:05;;;;;;;45.30;15.60;;;;;;;3.26;100.00;98394.63;5078257;28;20419;-78
2024/02/10 07:26:39;;;;;;;40.90;15.60;;;;;;;3.34;100.00;98388.59;5073942;28;20407;-79
2024/02/10 07:29:14;;;;;;;39.00;15.25;;;;;;;3.31;100.00;98389.97;5078868;28;20902;-78
2024/02/10 07:31:47;;;;;;;41.95;15.82;;;;;;;3.51;100.00;98385.44;5081851;28;20823;-78
2024/02/10 07:34:17;;;;;;;39.33;15.20;;;;;;;3.58;100.00;98391.25;5076449;28;20417;-78
2024/02/10 07:36:55;;;;;;;40.90;15.57;;;;;;;3.54;100.00;98387.56;5076248;28;20575;-78
2024/02/10 07:39:25;;;;;;;41.65;15.73;;;;;;;3.47;100.00;98389.81;5076174;28;20425;-78
2024/02/10 07:42:01;;;;;;;38.15;15.95;;;;;;;3.61;100.00;98397.97;5081519;28;21120;-78
2024/02/10 07:44:36;;;;;;;41.38;14.85;;;;;;;3.58;100.00;98404.72;5078594;28;20421;-78
2024/02/10 07:47:10;;;;;;;41.08;15.73;;;;;;;3.69;100.00;98408.84;5077621;28;20889;-78
2024/02/10 07:49:45;;;;;;;42.40;16.73;;;;;;;3.67;100.00;98411.03;5091282;28;20913;-78
2024/02/10 07:52:14;;;;;;;43.13;16.08;;;;;;;3.82;100.00;98406.53;5076462;28;20437;-78
2024/02/10 07:54:49;;;;;;;39.28;15.45;;;;;;;3.81;100.00;98418.38;5079338;28;20424;-78
2024/02/10 07:57:22;;;;;;;42.75;15.63;;;;;;;3.83;100.00;98411.63;5077155;28;20416;-78
2024/02/10 07:59:54;;;;;;;39.88;16.10;;;;;;;3.84;100.00;98413.22;5090697;28;20424;-78
2024/02/10 08:02:27;;;;;;;41.38;16.17;;;;;;;3.88;100.00;98421.50;5088707;28;20427;-78
2024/02/10 08:05:00;;;;;;;41.50;15.20;;;;;;;3.96;100.00;98425.44;5078011;28;20414;-78
2024/02/10 08:07:33;;;;;;;41.67;15.82;;;;;;;3.98;100.00;98429.44;5077004;28;20414;-78
2024/02/10 08:10:08;;;;;;;39.13;15.13;;;;;;;4.00;100.00;98437.22;5079084;28;20436;-78
2024/02/10 08:12:45;;;;;;;38.95;14.93;;;;;;;4.07;100.00;98432.28;5077192;28;20417;-78
2024/02/10 08:15:22;;;;;;;40.67;15.55;;;;;;;4.10;100.00;98437.06;5089110;28;20423;-78
2024/02/10 08:17:51;;;;;;;36.33;15.57;;;;;;;4.18;100.00;98441.78;5079345;28;20399;-77
2024/02/10 08:20:24;;;;;;;36.77;15.57;;;;;;;4.02;100.00;98459.25;5081472;28;21241;-77
2024/02/10 08:22:57;;;;;;;36.63;15.03;;;;;;;4.03;100.00;98461.69;5072442;28;20429;-81
2024/02/10 08:25:31;;;;;;;42.08;15.75;;;;;;;3.92;100.00;98461.00;5079801;28;20414;-78
2024/02/10 08:28:06;;;;;;;39.90;15.07;;;;;;;4.04;100.00;98460.56;5078904;28;20429;-80
2024/02/10 08:30:41;;;;;;;36.33;14.95;;;;;;;3.96;100.00;98460.44;5093327;28;20424;-79
2024/02/10 08:33:19;;;;;;;36.40;14.60;;;;;;;4.13;100.00;98457.22;5078582;28;20429;-78
2024/02/10 08:35:48;;;;;;;39.25;14.75;;;;;;;4.03;100.00;98447.41;5079637;28;20428;-78
2024/02/10 08:38:21;;;;;;;39.00;14.88;;;;;;;4.07;100.00;98448.41;5080363;28;20419;-81
2024/02/10 08:40:49;;;;;;;36.60;14.05;;;;;;;4.00;100.00;98446.09;5080564;28;20413;-79
2024/02/10 08:43:24;;;;;;;41.00;15.13;;;;;;;4.02;100.00;98451.19;5080689;28;20435;-80
2024/02/10 08:45:53;;;;;;;45.10;14.88;;;;;;;4.04;100.00;98443.63;5079052;28;20429;-77
2024/02/10 08:48:22;;;;;;;43.03;15.02;;;;;;;3.93;100.00;98453.72;5077279;28;20434;-79
2024/02/10 08:50:50;;;;;;;41.05;15.43;;;;;;;3.95;100.00;98459.63;5073202;28;20423;-78
2024/02/10 08:53:23;;;;;;;42.40;14.65;;;;;;;4.02;100.00;98468.16;5076494;28;20891;-78
2024/02/10 08:55:58;;;;;;;42.60;14.57;;;;;;;4.28;100.00;98475.88;5076783;28;20435;-77
2024/02/10 08:58:32;;;;;;;40.55;14.52;;;;;;;4.22;100.00;98474.31;5077186;28;20431;-77
2024/02/10 09:01:15;;;;;;;52.03;14.85;;;;;;;4.06;100.00;98479.09;5073372;28;20422;-78
2024/02/10 09:03:50;;;;;;;47.20;15.02;;;;;;;4.00;100.00;98477.59;5075221;28;20427;-78
2024/02/10 09:06:24;;;;;;;47.70;15.65;;;;;;;4.01;100.00;98482.69;5076939;28;21007;-76
2024/02/10 09:08:57;;;;;;;46.72;15.07;;;;;;;4.04;100.00;98492.06;5078190;28;20447;-78
2024/02/10 09:11:26;;;;;;;44.05;14.23;;;;;;;4.09;100.00;98492.00;5075855;28;20434;-77
2024/02/10 09:13:59;;;;;;;49.40;14.70;;;;;;;4.09;100.00;98495.50;5080187;28;20919;-78
2024/02/10 09:16:33;;;;;;;46.40;14.30;;;;;;;4.14;100.00;98499.19;5037619;28;20476;-78
2024/02/10 09:19:07;;;;;;;56.83;14.25;;;;;;;4.18;100.00;98503.72;5067854;28;20429;-78
2024/02/10 09:21:35;;;;;;;54.38;15.00;;;;;;;4.33;100.00;98508.06;5063808;28;20421;-78
2024/02/10 09:24:11;;;;;;;49.42;14.38;;;;;;;4.30;100.00;98497.91;5053946;28;20436;-78
2024/02/10 09:26:44;;;;;;;53.67;14.10;;;;;;;4.47;100.00;98512.72;5059422;28;21708;-78
2024/02/10 09:29:13;;;;;;;40.38;14.20;;;;;;;4.50;100.00;98510.25;5065955;28;20426;-78
2024/02/10 09:31:49;;;;;;;43.33;14.20;;;;;;;4.57;100.00;98505.31;5060574;28;20432;-79
2024/02/10 09:34:20;;;;;;;47.55;14.00;;;;;;;4.61;100.00;98508.19;5060721;28;20421;-78
2024/02/10 09:36:48;;;;;;;37.15;13.63;;;;;;;4.61;100.00;98508.19;5064440;28;21105;-78
2024/02/10 09:39:16;;;;;;;40.05;14.15;;;;;;;4.64;100.00;98507.63;5067787;28;20430;-82
2024/02/10 09:41:45;;;;;;;41.85;13.48;;;;;;;4.63;100.00;98507.91;5062507;28;20414;-78
2024/02/10 09:44:20;;;;;;;45.22;13.55;;;;;;;4.80;100.00;98518.16;5064750;28;20414;-78
2024/02/10 09:46:56;;;;;;;42.50;13.52;;;;;;;4.81;100.00;98515.16;5061997;28;20413;-77
2024/02/10 09:49:26;;;;;;;41.00;13.55;;;;;;;4.87;100.00;98527.44;5062602;28;20434;-77
2024/02/10 09:51:59;;;;;;;37.22;12.90;;;;;;;5.01;100.00;98530.19;5065757;28;20426;-77
2024/02/10 09:54:28;;;;;;;43.20;13.45;;;;;;;4.96;100.00;98524.88;5065537;28;20410;-78
2024/02/10 09:57:05;;;;;;;44.10;12.73;;;;;;;4.97;100.00;98537.25;5068676;28;20417;-78
2024/02/10 09:59:39;;;;;;;32.22;13.32;;;;;;;4.94;100.00;98535.16;5058651;28;20437;-78
2024/02/10 10:02:15;;;;;;;55.90;12.93;;;;;;;4.90;100.00;98539.53;5068044;28;20405;-77
2024/02/10 10:04:48;;;;;;;57.70;13.90;;;;;;;5.06;100.00;98527.41;5060769;28;21178;-77
2024/02/10 10:07:17;;;;;;;59.05;13.55;;;;;;;4.93;100.00;98538.97;5058493;28;21117;-80
2024/02/10 10:09:50;;;;;;;45.10;13.67;;;;;;;5.10;100.00;98539.19;5057932;28;20813;-78
2024/02/10 10:12:19;;;;;;;47.00;13.77;;;;;;;5.05;100.00;98543.88;5061941;28;20426;-77
2024/02/10 10:14:53;;;;;;;52.85;13.32;;;;;;;4.96;100.00;98541.06;5062924;28;20508;-77
2024/02/10 10:17:37;;;;;;;54.17;14.15;;;;;;;4.89;100.00;98546.03;5041268;28;20439;-77
2024/02/10 10:20:10;;;;;;;91.03;14.05;;;;;;;4.92;100.00;98548.13;5083114;28;20436;-77
2024/02/10 10:22:44;;;;;;;78.05;13.80;;;;;;;4.96;100.00;98548.34;5079025;28;20422;-77
2024/02/10 10:25:12;;;;;;;66.90;13.40;;;;;;;4.94;100.00;98548.63;5078061;28;20882;-77
2024/02/10 10:27:40;;;;;;;79.65;13.43;;;;;;;5.01;100.00;98550.94;5078833;28;20414;-77
2024/02/10 10:30:16;;;;;;;63.88;14.20;;;;;;;5.09;100.00;98545.66;5093422;28;20425;-77
2024/02/10 10:32:52;;;;;;;60.05;13.82;;;;;;;5.19;100.00;98555.50;5080317;28;20745;-77
2024/02/10 10:35:20;;;;;;;71.07;13.82;;;;;;;5.22;100.00;98554.91;5077990;28;20415;-77
2024/02/10 10:37:50;;;;;;;78.47;14.38;;;;;;;5.15;100.00;98546.41;5081623;28;21263;-77
2024/02/10 10:40:23;;;;;;;78.18;13.63;;;;;;;5.12;100.00;98555.06;5079440;28;20444;-77
2024/02/10 10:43:01;;;;;;;72.93;14.65;;;;;;;5.19;100.00;98552.00;5078803;28;20426;-77
2024/02/10 10:45:36;;;;;;;108.32;14.10;;;;;;;5.07;100.00;98544.41;5078281;28;20923;-77
2024/02/10 10:48:10;;;;;;;63.85;14.23;;;;;;;5.19;100.00;98554.69;5076266;28;20420;-77
2024/02/10 10:50:39;;;;;;;65.32;13.43;;;;;;;5.13;100.00;98547.81;5077538;28;20429;-77
2024/02/10 10:53:10;;;;;;;46.50;13.07;;;;;;;5.20;100.00;98557.09;5078636;28;20422;-77
2024/02/10 10:55:43;;;;;;;106.88;14.63;;;;;;;5.32;100.00;98553.94;5078127;28;20422;-77
2024/02/10 10:58:19;;;;;;;39.47;12.70;;;;;;;5.30;100.00;98549.91;5085175;28;20437;-78
2024/02/10 11:00:53;;;;;;;62.80;13.77;;;;;;;5.34;100.00;98545.53;5077882;28;20425;-77
2024/02/10 11:03:29;;;;;;;53.25;13.65;;;;;;;5.36;100.00;98554.13;5075470;28;20500;-77
2024/02/10 11:06:11;;;;;;;73.57;14.23;;;;;;;5.37;100.00;98551.16;5080680;28;20431;-77
2024/02/10 11:08:53;;;;;;;59.25;13.88;;;;;;;5.27;100.00;98548.63;5074088;28;20447;-77
2024/02/10 11:11:22;;;;;;;39.38;13.50;;;;;;;5.28;100.00;98542.91;5095747;27;20433;-77
2024/02/10 11:13:57;;;;;;;53.70;13.02;;;;;;;5.44;100.00;98538.06;5080694;28;20426;-77
2024/02/10 11:16:31;;;;;;;70.47;14.25;;;;;;;5.38;100.00;98531.16;5079821;28;20418;-77
2024/02/10 11:19:01;;;;;;;36.00;13.73;;;;;;;5.28;100.00;98529.44;5076199;28;20423;-76
2024/02/10 11:21:31;;;;;;;45.55;14.23;;;;;;;5.47;100.00;98531.28;5076228;28;20425;-77
2024/02/10 11:24:11;;;;;;;38.47;13.38;;;;;;;5.45;100.00;98528.88;5078833;28;20461;-77
2024/02/10 11:26:40;;;;;;;42.30;13.70;;;;;;;5.62;100.00;98530.16;5073435;28;20433;-77
2024/02/10 11:29:09;;;;;;;43.72;13.95;;;;;;;5.43;100.00;98533.75;5081753;28;20426;-77
2024/02/10 11:31:42;;;;;;;41.17;13.48;;;;;;;5.43;100.00;98547.25;5086966;28;20423;-77
2024/02/10 11:34:17;;;;;;;39.67;14.90;;;;;;;5.56;100.00;98542.16;5074689;28;20903;-77
2024/02/10 11:36:52;;;;;;;50.47;14.77;;;;;;;5.46;100.00;98537.75;5075277;28;20427;-77
2024/02/10 11:39:27;;;;;;;39.65;14.48;;;;;;;5.57;100.00;98544.56;5074344;28;20436;-77